KEAT

Pangborn Memorial Airport

Wenatchee, Washington, USA
METAR KEAT 151855Z AUTO 00000KT 10SM OVC025 M02/M03 A2964 RMK AO2 SLP052 T10221033
Observed Flight Rules
Feb-15 @ 18:55 UTC (52 minutes ago) Marginal Visual Flight Rules
Visibility Clouds
10 miles
  • Overcast at 2,500' AGL
Temperatures Readings
Current -2°C / 28°F
Dewpoint -3°C / 27°F
Humidity 93%
Altimeter 29.64" Hg
Pressure 1005.2 hPa
Elevation 377
METAR KEAT 151855Z AUTO 00000KT 10SM OVC025 M02/M03 A2964 RMK AO2 SLP052 T10221033
Observed Flight Rules
Feb-15 @ 18:55 UTC
(52 minutes ago)
MVFR
Clouds
  • Overcast at 2,500' AGL
Temperature Dewpoint
-2°C / 28°F -3°C / 27°F
Humidity Altimeter Pressure
93% 29.64" Hg 1005.2 hPa